Overview Statistics Trail Chart Weather Telemetry Raw packets
 

This is the latest recevied weather packets stored in our database for station/object CW79215. If no packets are shown the sender has not sent any weather packets the latest 10 day(s).

<< 33 34 35 36 37 38 39 >>
Time Temp. Humidity Pressure Rain* Wind** Luminosity Snow
1787919623 21.67° C 68% 1024.6 hPa - - - -
1787918723 21.11° C 70% 1024.6 hPa - - - -
1787917823 21.67° C 72% 1024.5 hPa - - - -
1787916923 21.11° C 75% 1024.5 hPa - - - -
1787916023 20.56° C 76% 1024.3 hPa - - - -
1787915123 20° C 80% 1024.4 hPa - - - -
1787914223 20.56° C 79% 1023.9 hPa - - - -
1787913323 20.56° C 79% 1023.9 hPa - - - -
1787912423 20.56° C 79% 1023.5 hPa - - - -
1787911523 20° C 82% 1024.1 hPa - - - -
1787910622 20° C 83% 1024 hPa - - - -
1787909722 20° C 83% 1023.1 hPa - - - -
1787908821 20° C 84% 1023.5 hPa - - - -
1787907921 20.56° C 85% 1023.4 hPa - - - -
1787907021 20° C 84% 1023.2 hPa - - - -
1787906123 20° C 83% 1023.1 hPa - - - -
1787905223 19.44° C 89% 1023 hPa - - - -
1787904323 18.89° C 92% 1023.5 hPa - - - -
1787903423 20° C 90% 1023.4 hPa - - - -
1787902523 20° C 84% 1021.9 hPa - - - -
1787901623 20° C 87% 1021.2 hPa - - - -
1787900723 20.56° C 81% 1020.9 hPa - - - -
1787899822 20.56° C 82% 1021 hPa - - - -
1787898922 21.67° C 76% 1021.2 hPa - - - -
1787898022 21.11° C 80% 1020.9 hPa - - - -

* Rain since midnight (hover to see other rain measurements)
** Current wind speed in m/s (hover to see current wind gust speed)